createdAt,value
2023-04-11T00:00:18.853Z,19.00
2023-04-11T00:02:47.505Z,21.57
2023-04-11T00:05:16.041Z,19.73
2023-04-11T00:07:44.346Z,16.83
2023-04-11T00:10:12.769Z,17.23
2023-04-11T00:12:41.237Z,18.73
2023-04-11T00:15:11.760Z,21.77
2023-04-11T00:17:41.685Z,15.93
2023-04-11T00:20:11.691Z,20.33
2023-04-11T00:22:40.777Z,19.60
2023-04-11T00:25:09.889Z,16.90
2023-04-11T00:27:38.217Z,21.90
2023-04-11T00:30:08.321Z,19.20
2023-04-11T00:32:38.044Z,20.97
2023-04-11T00:35:08.844Z,21.33
2023-04-11T00:37:37.452Z,20.13
2023-04-11T00:40:07.802Z,25.50
2023-04-11T00:42:36.126Z,20.17
2023-04-11T00:45:04.806Z,21.63
2023-04-11T00:47:35.032Z,19.80
2023-04-11T00:50:05.175Z,18.97
2023-04-11T00:52:33.519Z,17.83
2023-04-11T00:55:03.546Z,19.23
2023-04-11T00:57:32.355Z,23.00
2023-04-11T01:00:04.392Z,24.93
2023-04-11T01:02:33.514Z,20.50
2023-04-11T01:05:02.320Z,21.53
2023-04-11T01:07:34.324Z,15.03
2023-04-11T01:10:03.800Z,21.00
2023-04-11T01:12:32.716Z,16.77
2023-04-11T01:15:02.217Z,20.17
2023-04-11T01:17:32.628Z,21.20
2023-04-11T01:20:01.434Z,18.23
2023-04-11T01:22:30.693Z,21.07
2023-04-11T01:25:02.204Z,19.80
2023-04-11T01:27:30.561Z,21.50
2023-04-11T01:29:58.882Z,20.00
2023-04-11T01:32:27.430Z,20.10
2023-04-11T01:34:58.131Z,18.17
2023-04-11T01:37:27.195Z,17.23
2023-04-11T01:39:55.669Z,23.60
2023-04-11T01:42:27.237Z,20.97
2023-04-11T01:44:56.711Z,20.40
2023-04-11T01:47:25.138Z,16.30
2023-04-11T01:49:56.086Z,31.70
2023-04-11T01:52:24.373Z,17.47
2023-04-11T01:54:52.856Z,21.90
2023-04-11T01:57:21.262Z,24.90
2023-04-11T01:59:51.217Z,21.50
2023-04-11T02:02:19.646Z,27.87
2023-04-11T02:04:49.385Z,19.93
2023-04-11T02:07:17.734Z,18.13
2023-04-11T02:09:46.065Z,22.70
2023-04-11T02:12:14.412Z,18.20
2023-04-11T02:14:44.122Z,16.57
2023-04-11T02:17:14.543Z,15.30
2023-04-11T02:19:45.364Z,15.57
2023-04-11T02:22:14.426Z,13.33
2023-04-11T02:24:43.492Z,15.43
2023-04-11T02:27:12.725Z,14.00
2023-04-11T02:29:41.017Z,15.80
2023-04-11T02:32:09.622Z,13.20
2023-04-11T02:34:39.453Z,14.27
2023-04-11T02:37:07.744Z,13.07
2023-04-11T02:39:36.102Z,11.57
2023-04-11T02:42:04.697Z,11.90
2023-04-11T02:44:33.042Z,10.83
2023-04-11T02:47:01.444Z,12.73
2023-04-11T02:49:30.623Z,10.17
2023-04-11T02:52:00.366Z,13.93
2023-04-11T02:54:28.714Z,14.57
2023-04-11T02:56:57.151Z,15.77
2023-04-11T02:59:25.623Z,19.63
2023-04-11T03:01:59.429Z,16.50
2023-04-11T03:04:28.303Z,18.07
2023-04-11T03:06:56.805Z,18.53
2023-04-11T03:09:27.371Z,21.47
2023-04-11T03:11:56.151Z,24.63
2023-04-11T03:14:24.645Z,21.27
2023-04-11T03:16:52.969Z,22.47
2023-04-11T03:19:21.333Z,23.23
2023-04-11T03:21:49.680Z,23.70
2023-04-11T03:24:18.131Z,23.67
2023-04-11T03:26:47.813Z,25.30
2023-04-11T03:29:16.685Z,23.40
2023-04-11T03:31:45.282Z,34.50
2023-04-11T03:34:13.742Z,27.33
2023-04-11T03:36:42.064Z,22.47
2023-04-11T03:39:10.380Z,25.20
2023-04-11T03:41:38.877Z,26.87
2023-04-11T03:44:08.699Z,23.90
2023-04-11T03:46:37.061Z,26.30
2023-04-11T03:49:05.412Z,27.80
2023-04-11T03:51:34.009Z,28.13
2023-04-11T03:54:02.307Z,24.17
2023-04-11T03:56:30.644Z,21.83
2023-04-11T03:58:59.092Z,23.97
2023-04-11T04:01:28.906Z,19.67
2023-04-11T04:03:57.594Z,15.70
2023-04-11T04:06:27.101Z,16.67
2023-04-11T04:08:55.453Z,15.17
2023-04-11T04:11:23.814Z,12.60
2023-04-11T04:13:52.205Z,13.30
2023-04-11T04:16:21.226Z,12.03
2023-04-11T04:18:50.989Z,12.73
2023-04-11T04:21:19.508Z,10.93
2023-04-11T04:23:48.971Z,12.97
2023-04-11T04:26:17.332Z,16.03
2023-04-11T04:28:47.449Z,10.77
2023-04-11T04:31:26.869Z,20.30
2023-04-11T04:33:58.754Z,18.87
2023-04-11T04:36:27.036Z,18.43
2023-04-11T04:38:57.735Z,14.90
2023-04-11T04:41:26.189Z,16.40
2023-04-11T04:43:58.578Z,15.73
2023-04-11T04:46:27.028Z,14.00
2023-04-11T04:48:56.777Z,15.30
2023-04-11T04:51:25.248Z,21.50
2023-04-11T04:53:53.740Z,14.87
2023-04-11T04:56:22.285Z,14.33
2023-04-11T04:58:50.730Z,14.60
2023-04-11T05:01:19.272Z,14.67
2023-04-11T05:03:50.876Z,14.07
2023-04-11T05:06:20.758Z,16.73
2023-04-11T05:08:50.374Z,19.57
2023-04-11T05:11:18.921Z,19.07
2023-04-11T05:13:47.237Z,16.10
2023-04-11T05:16:15.942Z,15.33
2023-04-11T05:18:44.411Z,14.87
2023-04-11T05:21:12.965Z,16.80
2023-04-11T05:23:42.829Z,15.77
2023-04-11T05:26:11.581Z,16.50
2023-04-11T05:28:40.037Z,14.70
2023-04-11T05:31:08.789Z,13.20
2023-04-11T05:33:38.485Z,13.47
2023-04-11T05:36:07.817Z,11.83
2023-04-11T05:38:36.219Z,13.60
2023-04-11T05:41:06.490Z,12.40
2023-04-11T05:43:34.991Z,13.60
2023-04-11T05:46:03.485Z,10.87
2023-04-11T05:48:31.870Z,10.80
2023-04-11T05:51:01.514Z,13.67
2023-04-11T05:53:30.550Z,11.37
2023-04-11T05:55:59.117Z,10.90
2023-04-11T05:58:29.860Z,12.57
2023-04-11T06:00:59.518Z,12.80
2023-04-11T06:03:28.064Z,11.67
2023-04-11T06:05:56.804Z,10.67
2023-04-11T06:08:25.100Z,11.20
2023-04-11T06:10:53.416Z,9.20
2023-04-11T06:13:21.800Z,12.97
2023-04-11T06:15:51.821Z,9.70
2023-04-11T06:18:20.183Z,10.77
2023-04-11T06:20:49.626Z,11.60
2023-04-11T06:23:18.065Z,10.33
2023-04-11T06:25:46.380Z,9.33
2023-04-11T06:28:15.279Z,9.23
2023-04-11T06:30:43.769Z,9.00
2023-04-11T06:33:13.472Z,8.97
2023-04-11T06:35:41.845Z,10.70
2023-04-11T06:38:10.413Z,9.60
2023-04-11T06:40:38.745Z,9.47
2023-04-11T06:43:07.082Z,8.47
2023-04-11T06:45:35.475Z,7.97
2023-04-11T06:48:04.058Z,8.90
2023-04-11T06:50:33.823Z,7.57
2023-04-11T06:53:02.137Z,8.73
2023-04-11T06:55:30.999Z,7.90
2023-04-11T06:57:59.363Z,6.97
2023-04-11T07:00:28.145Z,8.47
2023-04-11T07:02:56.809Z,6.70
2023-04-11T07:05:25.346Z,7.43
2023-04-11T07:07:55.748Z,7.43
2023-04-11T07:10:25.014Z,7.43
2023-04-11T07:12:53.529Z,7.77
2023-04-11T07:15:23.918Z,7.50
2023-04-11T07:17:53.010Z,6.33
2023-04-11T07:20:21.622Z,7.00
2023-04-11T07:22:50.153Z,6.63
2023-04-11T07:25:22.589Z,6.40
2023-04-11T07:27:53.171Z,5.50
2023-04-11T07:30:21.485Z,5.47
2023-04-11T07:32:50.092Z,4.87
2023-04-11T07:35:18.664Z,6.30
2023-04-11T07:37:47.549Z,7.10
2023-04-11T07:40:15.866Z,5.50
2023-04-11T07:42:46.401Z,5.87
2023-04-11T07:45:14.880Z,4.70
2023-04-11T07:47:43.304Z,4.80
2023-04-11T07:50:12.567Z,4.90
2023-04-11T07:52:40.892Z,4.47
2023-04-11T07:55:09.740Z,6.80
2023-04-11T07:57:38.028Z,4.80
2023-04-11T08:00:11.495Z,5.00
2023-04-11T08:02:40.355Z,5.20
2023-04-11T08:05:10.237Z,4.90
2023-04-11T08:07:38.597Z,5.50
2023-04-11T08:10:08.364Z,6.63
2023-04-11T08:12:36.767Z,15.57
2023-04-11T08:15:05.702Z,4.53
2023-04-11T08:17:38.617Z,4.80
2023-04-11T08:20:09.427Z,3.60
2023-04-11T08:22:39.095Z,3.70
2023-04-11T08:25:09.879Z,3.87
2023-04-11T08:27:38.508Z,4.10
2023-04-11T08:30:08.922Z,4.77
2023-04-11T08:32:39.136Z,4.10
2023-04-11T08:35:08.154Z,4.33
2023-04-11T08:37:36.669Z,3.80
2023-04-11T08:40:07.173Z,3.70
2023-04-11T08:42:35.835Z,2.73
2023-04-11T08:45:08.361Z,4.23
2023-04-11T08:47:38.613Z,3.20
2023-04-11T08:50:09.397Z,13.80
2023-04-11T08:52:40.230Z,5.00
2023-04-11T08:55:09.139Z,3.27
2023-04-11T08:57:38.344Z,3.27
2023-04-11T09:00:15.029Z,4.23
2023-04-11T09:02:59.059Z,2.63
2023-04-11T09:05:32.067Z,3.27
2023-04-11T09:08:02.034Z,2.93
2023-04-11T09:10:30.464Z,3.00
2023-04-11T09:12:59.339Z,3.33
2023-04-11T09:15:29.999Z,3.77
2023-04-11T09:18:01.014Z,4.00
2023-04-11T09:20:31.298Z,3.30
2023-04-11T09:23:00.689Z,5.30
2023-04-11T09:25:29.489Z,3.23
2023-04-11T09:28:09.755Z,3.30
2023-04-11T09:30:38.525Z,2.27
2023-04-11T09:33:23.717Z,3.07
2023-04-11T09:35:54.120Z,3.10
2023-04-11T09:38:33.253Z,3.30
2023-04-11T09:41:02.484Z,3.43
2023-04-11T09:43:50.651Z,3.90
2023-04-11T09:46:21.318Z,3.97
2023-04-11T09:48:52.810Z,3.47
2023-04-11T09:51:35.097Z,3.07
2023-04-11T09:54:05.451Z,3.50
2023-04-11T09:56:35.656Z,3.67
2023-04-11T09:59:05.664Z,6.83
2023-04-11T10:01:34.256Z,5.00
2023-04-11T10:04:04.562Z,3.27
2023-04-11T10:06:39.923Z,4.37
2023-04-11T10:09:09.685Z,3.83
2023-04-11T10:11:38.821Z,3.80
2023-04-11T10:14:07.221Z,3.10
2023-04-11T10:16:35.853Z,4.13
2023-04-11T10:19:27.472Z,3.10
2023-04-11T10:21:56.049Z,3.30
2023-04-11T10:24:26.826Z,3.30
2023-04-11T10:26:56.284Z,3.17
2023-04-11T10:29:53.175Z,3.80
2023-04-11T10:32:23.547Z,3.53
2023-04-11T10:35:24.910Z,3.80
2023-04-11T10:37:53.368Z,3.63
2023-04-11T10:40:22.297Z,3.23
2023-04-11T10:42:50.712Z,3.73
2023-04-11T10:45:22.059Z,5.60
2023-04-11T10:48:13.095Z,5.13
2023-04-11T10:50:44.705Z,3.13
2023-04-11T10:53:37.666Z,3.03
2023-04-11T10:56:06.677Z,3.43
2023-04-11T10:58:39.827Z,4.37
2023-04-11T11:03:56.943Z,5.40
2023-04-11T11:06:29.400Z,7.43
2023-04-11T11:08:59.128Z,3.47
2023-04-11T11:11:27.554Z,3.23
2023-04-11T11:13:57.148Z,2.80
2023-04-11T11:16:27.241Z,3.03
2023-04-11T11:18:58.987Z,3.37
2023-04-11T11:21:30.236Z,3.20
2023-04-11T11:23:59.877Z,2.77
2023-04-11T11:26:38.964Z,3.00
2023-04-11T11:29:07.397Z,3.90
2023-04-11T11:31:39.829Z,2.90
2023-04-11T11:34:23.096Z,2.50
2023-04-11T11:36:54.046Z,3.83
2023-04-11T11:42:10.905Z,3.10
2023-04-11T11:44:39.410Z,3.57
2023-04-11T11:47:09.211Z,3.57
2023-04-11T11:49:48.466Z,4.80
2023-04-11T12:05:36.459Z,3.80
2023-04-11T12:08:06.135Z,3.83
2023-04-11T12:10:39.606Z,3.90
2023-04-11T12:13:19.757Z,3.50
2023-04-11T12:15:52.929Z,4.20
2023-04-11T12:18:22.961Z,4.30
2023-04-11T12:20:54.300Z,3.90
2023-04-11T12:23:23.168Z,5.80
2023-04-11T12:25:51.656Z,4.07
2023-04-11T12:28:20.078Z,4.60
2023-04-11T12:30:48.374Z,3.93
2023-04-11T12:33:17.534Z,4.47
2023-04-11T12:35:46.017Z,3.57
2023-04-11T12:38:17.864Z,7.37
2023-04-11T12:40:47.636Z,3.60
2023-04-11T12:43:15.977Z,3.60
2023-04-11T12:45:44.351Z,5.43
2023-04-11T12:48:12.713Z,4.70
2023-04-11T12:50:41.239Z,4.43
2023-04-11T12:53:09.694Z,4.20
2023-04-11T12:55:39.612Z,3.40
2023-04-11T12:58:08.310Z,4.37
2023-04-11T13:00:36.939Z,12.97
2023-04-11T13:03:06.210Z,7.20
2023-04-11T13:05:34.817Z,3.20
2023-04-11T13:08:03.167Z,2.60
2023-04-11T13:10:31.826Z,3.40
2023-04-11T13:13:11.736Z,3.13
2023-04-11T13:15:46.594Z,2.93
2023-04-11T13:18:14.964Z,3.23
2023-04-11T13:20:43.342Z,3.03
2023-04-11T13:23:11.896Z,3.53
2023-04-11T13:25:40.257Z,2.30
2023-04-11T13:28:10.029Z,3.00
2023-04-11T13:30:38.617Z,3.53
2023-04-11T13:33:06.971Z,2.47
2023-04-11T13:35:35.364Z,3.03
2023-04-11T13:38:04.885Z,3.20
2023-04-11T13:40:33.602Z,3.27
2023-04-11T13:43:02.398Z,2.40
2023-04-11T13:45:32.642Z,3.30
2023-04-11T13:48:01.124Z,2.50
2023-04-11T13:50:29.641Z,2.87
2023-04-11T13:52:58.248Z,2.80
2023-04-11T13:55:26.828Z,2.40
2023-04-11T13:57:55.876Z,4.03
2023-04-11T14:00:24.460Z,4.43
2023-04-11T14:02:54.422Z,3.37
2023-04-11T14:05:24.728Z,2.77
2023-04-11T14:07:53.071Z,2.00
2023-04-11T14:10:21.482Z,2.10
2023-04-11T14:12:49.781Z,2.17
2023-04-11T14:15:19.968Z,2.30
2023-04-11T14:17:49.099Z,2.27
2023-04-11T14:20:19.119Z,2.30
2023-04-11T14:22:47.538Z,2.50
2023-04-11T14:25:15.907Z,2.77
2023-04-11T14:27:44.647Z,2.30
2023-04-11T14:30:14.325Z,2.63
2023-04-11T14:32:43.023Z,2.23
2023-04-11T14:35:11.818Z,2.20
2023-04-11T14:37:41.702Z,2.10
2023-04-11T14:40:11.520Z,2.47
2023-04-11T14:42:39.998Z,2.43
2023-04-11T14:45:09.352Z,2.67
2023-04-11T14:47:37.754Z,2.50
2023-04-11T14:50:07.133Z,3.43
2023-04-11T14:52:36.001Z,2.57
2023-04-11T14:55:06.622Z,2.60
2023-04-11T14:57:47.049Z,2.00
2023-04-11T15:00:21.069Z,1.77
2023-04-11T15:02:50.903Z,1.93
2023-04-11T15:05:20.042Z,2.00
2023-04-11T15:07:50.280Z,2.40
2023-04-11T15:10:21.554Z,2.10
2023-04-11T15:12:51.507Z,1.80
2023-04-11T15:15:19.847Z,1.63
2023-04-11T15:17:49.507Z,1.90
2023-04-11T15:20:19.865Z,2.60
2023-04-11T15:22:49.109Z,2.20
2023-04-11T15:25:24.347Z,2.43
2023-04-11T15:27:52.684Z,2.00
2023-04-11T15:30:21.118Z,2.40
2023-04-11T15:32:49.499Z,2.10
2023-04-11T15:35:18.113Z,1.63
2023-04-11T15:37:46.580Z,2.20
2023-04-11T15:40:15.538Z,1.93
2023-04-11T15:42:45.372Z,1.90
2023-04-11T15:45:13.974Z,1.50
2023-04-11T15:47:42.473Z,2.20
2023-04-11T15:50:12.135Z,2.93
2023-04-11T15:52:40.852Z,2.07
2023-04-11T15:55:09.904Z,2.13
2023-04-11T15:57:38.579Z,1.83
2023-04-11T16:00:10.134Z,2.00
2023-04-11T16:02:38.933Z,2.20
2023-04-11T16:05:08.636Z,2.30
2023-04-11T16:07:37.235Z,2.30
2023-04-11T16:10:06.197Z,1.73
2023-04-11T16:12:34.614Z,2.10
2023-04-11T16:15:04.209Z,1.70
2023-04-11T16:17:34.565Z,1.90
2023-04-11T16:20:08.849Z,2.60
2023-04-11T16:22:39.673Z,3.70
2023-04-11T16:25:09.270Z,2.27
2023-04-11T16:27:37.854Z,1.67
2023-04-11T16:30:07.937Z,3.07
2023-04-11T16:32:37.907Z,2.20
2023-04-11T16:35:07.166Z,2.20
2023-04-11T16:37:35.679Z,1.77
2023-04-11T16:40:07.480Z,2.17
2023-04-11T16:42:36.194Z,2.97
2023-04-11T16:45:05.070Z,2.50
2023-04-11T16:47:33.914Z,2.50
2023-04-11T16:50:04.039Z,1.93
2023-04-11T16:52:32.879Z,1.80
2023-04-11T16:55:01.187Z,2.73
2023-04-11T16:57:29.657Z,2.23
2023-04-11T16:59:57.990Z,1.90
2023-04-11T17:02:26.725Z,1.73
2023-04-11T17:04:55.165Z,2.20
2023-04-11T17:07:25.151Z,2.30
2023-04-11T17:09:53.687Z,2.10
2023-04-11T17:12:22.125Z,1.47
2023-04-11T17:14:50.618Z,2.17
2023-04-11T17:17:20.596Z,1.53
2023-04-11T17:19:48.936Z,1.77
2023-04-11T17:22:17.610Z,1.50
2023-04-11T17:24:47.394Z,2.07
2023-04-11T17:27:16.106Z,1.80
2023-04-11T17:29:44.564Z,1.60
2023-04-11T17:32:13.088Z,1.87
2023-04-11T17:34:41.393Z,1.90
2023-04-11T17:37:09.825Z,1.93
2023-04-11T17:39:38.229Z,1.77
2023-04-11T17:42:08.292Z,1.60
2023-04-11T17:44:36.994Z,1.53
2023-04-11T17:47:05.433Z,2.10
2023-04-11T17:49:33.969Z,2.97
2023-04-11T17:52:02.296Z,2.40
2023-04-11T17:54:30.897Z,2.17
2023-04-11T17:56:59.399Z,2.27
2023-04-11T17:59:29.157Z,2.20
2023-04-11T18:01:57.585Z,2.03
2023-04-11T18:04:26.529Z,3.63
2023-04-11T18:06:55.157Z,1.70
2023-04-11T18:09:26.985Z,2.60
2023-04-11T18:11:55.697Z,7.90
2023-04-11T18:14:24.089Z,2.67
2023-04-11T18:16:53.973Z,2.13
2023-04-11T18:19:22.316Z,3.33
2023-04-11T18:21:50.794Z,3.50
2023-04-11T18:24:19.351Z,2.77
2023-04-11T18:26:48.308Z,2.40
2023-04-11T18:29:16.785Z,4.93
2023-04-11T18:31:45.209Z,3.47
2023-04-11T18:34:15.182Z,3.33
2023-04-11T18:36:43.828Z,3.13
2023-04-11T18:39:12.913Z,4.40
2023-04-11T18:41:41.282Z,4.33
2023-04-11T18:44:11.640Z,3.37
2023-04-11T18:46:40.449Z,3.50
2023-04-11T18:49:09.377Z,3.40
2023-04-11T18:51:39.649Z,4.60
2023-04-11T18:54:08.194Z,2.90
2023-04-11T18:56:38.771Z,3.53
2023-04-11T18:59:10.056Z,3.20
2023-04-11T19:01:39.245Z,3.00
2023-04-11T19:04:08.817Z,2.57
2023-04-11T19:06:38.698Z,3.17
2023-04-11T19:09:07.624Z,2.40
2023-04-11T19:11:38.234Z,2.13
2023-04-11T19:14:06.868Z,7.77
2023-04-11T19:16:35.337Z,4.83
2023-04-11T19:19:04.164Z,17.07
2023-04-11T19:21:32.705Z,57.03
2023-04-11T19:24:02.405Z,74.20
2023-04-11T19:26:30.968Z,36.57
2023-04-11T19:28:59.736Z,46.83
2023-04-11T19:31:32.381Z,47.17
2023-04-11T19:34:01.210Z,43.30
2023-04-11T19:36:29.648Z,3.70
2023-04-11T19:38:58.090Z,3.47
2023-04-11T19:41:28.574Z,3.87
2023-04-11T19:43:57.520Z,3.00
2023-04-11T19:46:26.201Z,4.70
2023-04-11T19:48:55.314Z,3.00
2023-04-11T19:51:23.737Z,2.77
2023-04-11T19:53:52.102Z,2.90
2023-04-11T19:56:20.432Z,2.47
2023-04-11T19:58:50.400Z,3.00
2023-04-11T20:01:19.287Z,3.37
2023-04-11T20:03:47.745Z,6.90
2023-04-11T20:06:16.260Z,3.30
2023-04-11T20:08:44.816Z,4.20
2023-04-11T20:11:15.822Z,3.53
2023-04-11T20:13:44.120Z,3.07
2023-04-11T20:16:14.688Z,2.37
2023-04-11T20:18:43.226Z,3.07
2023-04-11T20:21:12.465Z,4.67
2023-04-11T20:23:41.739Z,2.53
2023-04-11T20:26:10.110Z,3.57
2023-04-11T20:28:39.572Z,3.77
2023-04-11T20:31:08.545Z,3.70
2023-04-11T20:33:40.355Z,2.57
2023-04-11T20:36:10.110Z,2.10
2023-04-11T20:38:38.779Z,1.97
2023-04-11T20:41:08.844Z,2.60
2023-04-11T20:43:41.846Z,2.17
2023-04-11T20:46:13.494Z,1.87
2023-04-11T20:48:44.539Z,3.27
2023-04-11T20:51:14.305Z,4.00
2023-04-11T20:53:42.855Z,2.73
2023-04-11T20:56:11.965Z,1.90
2023-04-11T20:58:40.871Z,1.97
2023-04-11T21:01:09.476Z,2.10
2023-04-11T21:03:38.804Z,2.87
2023-04-11T21:06:09.447Z,2.33
2023-04-11T21:08:38.208Z,2.27
2023-04-11T21:11:07.244Z,2.70
2023-04-11T21:13:35.565Z,6.87
2023-04-11T21:16:03.965Z,2.33
2023-04-11T21:18:32.406Z,2.67
2023-04-11T21:21:01.552Z,1.67
2023-04-11T21:23:31.311Z,1.30
2023-04-11T21:25:59.742Z,1.60
2023-04-11T21:28:28.367Z,1.77
2023-04-11T21:30:57.000Z,1.70
2023-04-11T21:33:25.399Z,1.50
2023-04-11T21:35:55.401Z,1.80
2023-04-11T21:38:23.921Z,1.60
2023-04-11T21:40:53.787Z,1.50
2023-04-11T21:43:22.294Z,1.70
2023-04-11T21:45:50.907Z,1.80
2023-04-11T21:48:19.301Z,2.47
2023-04-11T21:50:48.363Z,2.00
2023-04-11T21:53:17.075Z,2.07
2023-04-11T21:55:46.978Z,2.40
2023-04-11T21:58:28.617Z,1.93
2023-04-11T22:00:58.550Z,1.70
2023-04-11T22:03:29.036Z,1.63
2023-04-11T22:06:02.925Z,1.30
2023-04-11T22:08:31.271Z,2.10
2023-04-11T22:11:00.285Z,1.20
2023-04-11T22:13:30.747Z,1.50
2023-04-11T22:16:05.816Z,1.23
2023-04-11T22:18:38.283Z,1.83
2023-04-11T22:21:09.467Z,1.70
2023-04-11T22:23:37.990Z,2.13
2023-04-11T22:26:06.670Z,1.70
2023-04-11T22:28:36.388Z,2.47
2023-04-11T22:31:05.113Z,1.67
2023-04-11T22:33:33.673Z,1.33
2023-04-11T22:36:02.161Z,2.40
2023-04-11T22:38:32.142Z,1.90
2023-04-11T22:41:01.527Z,2.30
2023-04-11T22:43:30.737Z,1.93
2023-04-11T22:46:00.631Z,2.10
2023-04-11T22:48:31.504Z,1.83
2023-04-11T22:51:00.409Z,3.67
2023-04-11T22:53:29.844Z,1.80
2023-04-11T22:55:58.222Z,1.70
2023-04-11T22:58:26.735Z,3.33
2023-04-11T23:00:55.838Z,1.80
2023-04-11T23:03:25.847Z,1.83
2023-04-11T23:05:54.235Z,2.70
2023-04-11T23:08:22.969Z,2.50
2023-04-11T23:10:51.294Z,2.17
2023-04-11T23:13:19.937Z,2.87
2023-04-11T23:15:48.470Z,2.93
2023-04-11T23:18:17.557Z,2.63
2023-04-11T23:20:48.886Z,16.33
2023-04-11T23:23:17.641Z,4.80
2023-04-11T23:25:46.031Z,2.40
2023-04-11T23:28:14.613Z,2.40
2023-04-11T23:30:44.296Z,2.23
2023-04-11T23:33:13.316Z,2.30
2023-04-11T23:35:42.563Z,2.93
2023-04-11T23:38:12.428Z,3.40
2023-04-11T23:40:40.938Z,4.63
2023-04-11T23:43:10.074Z,2.27
2023-04-11T23:45:38.462Z,1.80
2023-04-11T23:48:07.543Z,2.57
2023-04-11T23:50:36.335Z,2.30
2023-04-11T23:53:04.806Z,2.67
2023-04-11T23:55:36.370Z,2.50
2023-04-11T23:58:04.911Z,2.73
